Main page
Satellite images 10-day forecastsClimateMarine weather Cyclones Lightning AirportsFAQ Newsletter About
Weather : Europe Africa North America South America Asia Australia-Oceania Others
Languages Contact

London-Luton, England

Luton Airport

latitude: 51-52N, longitude: 000-22W, elevation: 160 m


METAR: EGGW 042050Z 28005KT CAVOK 11/07 Q1018
TAF: EGGW 041700Z 0418/0518 34008KT 9999 SCT040 TEMPO 0502/0508 8000 -RA BKN012 PROB30 TEMPO 0503/0507 4000 -RADZ BR BKN004

Time: 22:01 (21:01 UTC)

Current weather observation

The report was made 11 minutes ago, at 20:50 UTC
Wind 5 kt from the West
Temperature 11°C
Humidity 76%
Pressure 1018 hPa
Visibility 10 km or more
no clouds below 1500 m and no cumulonimbus

Change units

Forecast

The report was made 4 hours and 1 minutes ago, at 17:00 UTC
Forecast valid from 04 at 18 UTC to 05 at 18 UTC
Wind 8 kt from the North/Northwest
Visibility 10 km or more
Scattered clouds at a height of 4000 ft
Temporary
from 05 at 02 UTC to 05 at 08 UTC
Visibility: 8000 m
Broken clouds at a height of 1200 ft
light rain
Probability 30% :
Temporary
from 05 at 03 UTC to 05 at 07 UTC
Visibility: 4000 m
Broken clouds at a height of 400 ft
light rain, drizzle, mist
The information on this site is subject to a disclaimer
Weather : Europe Africa North America South America Asia Australia-Oceania Others
Satellite images 10-day forecastsClimateMarine weather Cyclones Lightning AirportsFAQ Languages Contact Newsletter About